PWSweather.com
Personal Weather Stations
Station Observations
KMIEASTT1
Tawas Bay, East Tawas, MI 48730

Tawas BayEast Tawas, MI 48730

Lat: 44.28, Lon: -83.48

Elevation: 600

Station Type: Davis VantagePro

http://www.tawasbayweather.com

Latest ConditionsUpdated 1:45:09 PM EDT Tuesday, Aug 21, 2018
Currently Today's Max Today's Min Today's Average
Temperature 70.2°F21.2°C 71.7°F22.1°C 67.1°F19.5°C 69.2°F20.7°C
Dew Point 69.3°F20.7°C 70.0°F21.1°C 65.6°F18.7°C 67.7°F19.8°C
Winds 1.0 mph NNW1.6 kmh NNW 10.0 mph -16.1 kmh - - 0.4 mph 0.6 kmh
Wind Gusts 3.0 mph4.8 kmh 10.0 mph16.1 kmh - -
Humidity 97% 97% 92% 95%
Pressure 29.69 in1005.4 mb 29.92 in1013.2 mb 29.69 in1005.4 mb -
Hour Temp Dew Point Humidity Winds Wind Gusts Pressure Precip Precip Rate Daily Precip Total
01:45 PM 70.2°F21.2°C 69.3°F20.7°C 97% 1.0 mph NNW1.6 kmh NNW 3.0 mph4.8 kmh 29.69 in1005.4 mb 0.11 in2.8 mm 0.04 in1.0 mm 0.52 in13.2 mm
01:30 PM 69.5°F20.8°C 68.6°F20.3°C 97% 2.0 mph NNW3.2 kmh NNW 6.0 mph9.7 kmh 29.69 in1005.4 mb 0.10 in2.5 mm 0.00 in0.0 mm 0.51 in13.0 mm
01:15 PM 69.2°F20.7°C 68.3°F20.2°C 97% 1.0 mph N1.6 kmh N 4.0 mph6.4 kmh 29.70 in1005.8 mb 0.11 in2.8 mm 0.08 in2.0 mm 0.51 in13.0 mm
01:00 PM 69.1°F20.6°C 68.2°F20.1°C 97% Calm Calm 4.0 mph6.4 kmh 29.70 in1005.8 mb 0.09 in2.3 mm 0.04 in1.0 mm 0.49 in12.4 mm
12:45 PM 69.0°F20.6°C 68.1°F20.1°C 97% Calm Calm 5.0 mph8.0 kmh 29.70 in1005.8 mb 0.06 in1.5 mm 0.12 in3.0 mm 0.46 in11.7 mm
12:30 PM 68.9°F20.5°C 68.0°F20.0°C 97% Calm Calm 3.0 mph4.8 kmh 29.71 in1006.1 mb 0.03 in0.8 mm 0.08 in2.0 mm 0.43 in10.9 mm
12:15 PM 69.0°F20.6°C 68.1°F20.1°C 97% Calm Calm 2.0 mph3.2 kmh 29.71 in1006.1 mb 0.01 in0.3 mm 0.00 in0.0 mm 0.41 in10.4 mm
12:00 PM 69.0°F20.6°C 68.1°F20.1°C 97% Calm Calm 1.0 mph1.6 kmh 29.71 in1006.1 mb 0.01 in0.3 mm 0.00 in0.0 mm 0.41 in10.4 mm
11:45 AM 68.7°F20.4°C 67.8°F19.9°C 97% 1.0 mph N1.6 kmh N 3.0 mph4.8 kmh 29.71 in1006.1 mb 0.08 in2.0 mm 0.00 in0.0 mm 0.41 in10.4 mm
11:30 AM 68.9°F20.5°C 68.0°F20.0°C 97% 1.0 mph N1.6 kmh N 3.0 mph4.8 kmh 29.72 in1006.4 mb 0.08 in2.0 mm 0.00 in0.0 mm 0.41 in10.4 mm
11:15 AM 69.3°F20.7°C 68.4°F20.2°C 97% Calm Calm 2.0 mph3.2 kmh 29.72 in1006.4 mb 0.20 in5.1 mm 0.04 in1.0 mm 0.41 in10.4 mm
11:00 AM 69.0°F20.6°C 68.1°F20.1°C 97% Calm Calm 2.0 mph3.2 kmh 29.71 in1006.1 mb 0.19 in4.8 mm 0.00 in0.0 mm 0.40 in10.2 mm
10:45 AM 68.6°F20.3°C 67.7°F19.8°C 97% Calm Calm 4.0 mph6.4 kmh 29.72 in1006.4 mb 0.30 in7.6 mm 0.20 in5.1 mm 0.40 in10.2 mm
10:30 AM 68.6°F20.3°C 67.4°F19.7°C 96% Calm Calm 2.0 mph3.2 kmh 29.72 in1006.4 mb 0.25 in6.4 mm 0.16 in4.1 mm 0.35 in8.9 mm
10:15 AM 68.6°F20.3°C 67.4°F19.7°C 96% 10.0 mph E16.1 kmh E 10.0 mph16.1 kmh 29.73 in1006.8 mb 0.21 in5.3 mm 0.24 in6.1 mm 0.31 in7.9 mm
10:00 AM 69.4°F20.8°C 68.2°F20.1°C 96% 1.0 mph N1.6 kmh N 3.0 mph4.8 kmh 29.73 in1006.8 mb 0.15 in3.8 mm 0.05 in1.3 mm 0.25 in6.4 mm
09:45 AM 70.0°F21.1°C 68.8°F20.4°C 96% Calm Calm 5.0 mph8.0 kmh 29.73 in1006.8 mb 0.11 in2.8 mm 0.24 in6.1 mm 0.21 in5.3 mm
09:30 AM 70.2°F21.2°C 69.0°F20.6°C 96% Calm Calm 3.0 mph4.8 kmh 29.74 in1007.1 mb 0.05 in1.3 mm 0.00 in0.0 mm 0.15 in3.8 mm
09:15 AM 70.8°F21.6°C 69.6°F20.9°C 96% Calm Calm 3.0 mph4.8 kmh 29.75 in1007.5 mb 0.08 in2.0 mm 0.04 in1.0 mm 0.15 in3.8 mm
09:00 AM 70.6°F21.4°C 69.4°F20.8°C 96% Calm Calm 5.0 mph8.0 kmh 29.74 in1007.1 mb 0.07 in1.8 mm 0.00 in0.0 mm 0.14 in3.6 mm
08:45 AM 70.8°F21.6°C 69.6°F20.9°C 96% 2.0 mph E3.2 kmh E 7.0 mph11.3 kmh 29.73 in1006.8 mb 0.14 in3.6 mm 0.00 in0.0 mm 0.14 in3.6 mm
08:30 AM 71.2°F21.8°C 70.0°F21.1°C 96% 1.0 mph E1.6 kmh E 3.0 mph4.8 kmh 29.74 in1007.1 mb 0.14 in3.6 mm 0.00 in0.0 mm 0.14 in3.6 mm
08:15 AM 70.9°F21.6°C 69.7°F20.9°C 96% Calm Calm 2.0 mph3.2 kmh 29.74 in1007.1 mb 0.14 in3.6 mm 0.16 in4.1 mm 0.14 in3.6 mm
08:00 AM 70.4°F21.3°C 68.9°F20.5°C 95% Calm Calm 1.0 mph1.6 kmh 29.75 in1007.5 mb 0.10 in2.5 mm 0.12 in3.0 mm 0.10 in2.5 mm
07:45 AM 70.8°F21.6°C 69.0°F20.6°C 94% Calm Calm 1.0 mph1.6 kmh 29.75 in1007.5 mb 0.01 in0.3 mm 0.00 in0.0 mm 0.01 in0.3 mm
07:30 AM 71.3°F21.8°C 69.2°F20.7°C 93% Calm Calm 2.0 mph3.2 kmh 29.75 in1007.5 mb 0.01 in0.3 mm 0.04 in1.0 mm 0.01 in0.3 mm
07:15 AM 71.6°F22.0°C 69.5°F20.8°C 93% Calm Calm 1.0 mph1.6 kmh 29.76 in1007.8 mb 0.00 in0.0 mm 0.00 in0.0 mm 0.00 in0.0 mm
07:00 AM 71.7°F22.1°C 69.6°F20.9°C 93% Calm Calm 2.0 mph3.2 kmh 29.77 in1008.1 mb 0.00 in0.0 mm 0.00 in0.0 mm 0.00 in0.0 mm
06:45 AM 71.4°F21.9°C 69.3°F20.7°C 93% Calm Calm 2.0 mph3.2 kmh 29.78 in1008.5 mb 0.00 in0.0 mm 0.00 in0.0 mm 0.00 in0.0 mm
06:30 AM 71.1°F21.7°C 69.3°F20.7°C 94% Calm Calm 2.0 mph3.2 kmh 29.78 in1008.5 mb 0.00 in0.0 mm 0.00 in0.0 mm 0.00 in0.0 mm
06:15 AM 70.7°F21.5°C 68.9°F20.5°C 94% 1.0 mph NE1.6 kmh NE 2.0 mph3.2 kmh 29.79 in1008.8 mb 0.00 in0.0 mm 0.00 in0.0 mm 0.00 in0.0 mm
06:00 AM 70.2°F21.2°C 68.7°F20.4°C 95% Calm Calm 1.0 mph1.6 kmh 29.79 in1008.8 mb 0.00 in0.0 mm 0.00 in0.0 mm 0.00 in0.0 mm
05:45 AM 69.7°F20.9°C 68.5°F20.3°C 96% Calm Calm 1.0 mph1.6 kmh 29.80 in1009.1 mb 0.00 in0.0 mm 0.00 in0.0 mm 0.00 in0.0 mm
05:30 AM 69.0°F20.6°C 67.8°F19.9°C 96% Calm Calm -- 29.80 in1009.1 mb 0.00 in0.0 mm 0.00 in0.0 mm 0.00 in0.0 mm
05:15 AM 68.2°F20.1°C 67.0°F19.4°C 96% Calm Calm 1.0 mph1.6 kmh 29.80 in1009.1 mb 0.00 in0.0 mm 0.00 in0.0 mm 0.00 in0.0 mm
05:00 AM 67.6°F19.8°C 66.4°F19.1°C 96% Calm Calm 1.0 mph1.6 kmh 29.81 in1009.5 mb 0.00 in0.0 mm 0.00 in0.0 mm 0.00 in0.0 mm
04:45 AM 67.3°F19.6°C 65.8°F18.8°C 95% Calm Calm 2.0 mph3.2 kmh 29.81 in1009.5 mb 0.00 in0.0 mm 0.00 in0.0 mm 0.00 in0.0 mm
04:30 AM 67.1°F19.5°C 65.6°F18.7°C 95% Calm Calm 1.0 mph1.6 kmh 29.82 in1009.8 mb 0.00 in0.0 mm 0.00 in0.0 mm 0.00 in0.0 mm
04:15 AM 67.1°F19.5°C 65.6°F18.7°C 95% 1.0 mph NE1.6 kmh NE 1.0 mph1.6 kmh 29.82 in1009.8 mb 0.00 in0.0 mm 0.00 in0.0 mm 0.00 in0.0 mm
04:00 AM 67.1°F19.5°C 65.6°F18.7°C 95% Calm Calm 1.0 mph1.6 kmh 29.83 in1010.2 mb 0.00 in0.0 mm 0.00 in0.0 mm 0.00 in0.0 mm
03:45 AM 67.2°F19.6°C 65.7°F18.7°C 95% Calm Calm 1.0 mph1.6 kmh 29.83 in1010.2 mb 0.00 in0.0 mm 0.00 in0.0 mm 0.00 in0.0 mm
03:30 AM 67.5°F19.7°C 65.7°F18.7°C 94% Calm Calm 1.0 mph1.6 kmh 29.84 in1010.5 mb 0.00 in0.0 mm 0.00 in0.0 mm 0.00 in0.0 mm
03:15 AM 67.8°F19.9°C 66.0°F18.9°C 94% Calm Calm 2.0 mph3.2 kmh 29.85 in1010.8 mb 0.00 in0.0 mm 0.00 in0.0 mm 0.00 in0.0 mm
03:00 AM 68.1°F20.1°C 66.3°F19.1°C 94% Calm Calm 1.0 mph1.6 kmh 29.85 in1010.8 mb 0.00 in0.0 mm 0.00 in0.0 mm 0.00 in0.0 mm
02:45 AM 68.3°F20.2°C 66.5°F19.2°C 94% Calm Calm -- 29.85 in1010.8 mb 0.00 in0.0 mm 0.00 in0.0 mm 0.00 in0.0 mm
02:30 AM 68.4°F20.2°C 66.6°F19.2°C 94% Calm Calm -- 29.86 in1011.2 mb 0.00 in0.0 mm 0.00 in0.0 mm 0.00 in0.0 mm
02:15 AM 68.3°F20.2°C 66.5°F19.2°C 94% Calm Calm 1.0 mph1.6 kmh 29.87 in1011.5 mb 0.00 in0.0 mm 0.00 in0.0 mm 0.00 in0.0 mm
02:00 AM 68.3°F20.2°C 66.5°F19.2°C 94% Calm Calm 1.0 mph1.6 kmh 29.87 in1011.5 mb 0.00 in0.0 mm 0.00 in0.0 mm 0.00 in0.0 mm
01:45 AM 68.1°F20.1°C 66.3°F19.1°C 94% 1.0 mph ENE1.6 kmh ENE 1.0 mph1.6 kmh 29.88 in1011.9 mb 0.00 in0.0 mm 0.00 in0.0 mm 0.00 in0.0 mm
01:30 AM 68.2°F20.1°C 66.1°F18.9°C 93% Calm Calm 1.0 mph1.6 kmh 29.89 in1012.2 mb 0.00 in0.0 mm 0.00 in0.0 mm 0.00 in0.0 mm
01:15 AM 68.3°F20.2°C 66.2°F19.0°C 93% Calm Calm -- 29.90 in1012.5 mb 0.00 in0.0 mm 0.00 in0.0 mm 0.00 in0.0 mm
01:00 AM 68.6°F20.3°C 66.5°F19.2°C 93% Calm Calm -- 29.90 in1012.5 mb 0.00 in0.0 mm 0.00 in0.0 mm 0.00 in0.0 mm
12:45 AM 68.7°F20.4°C 66.6°F19.2°C 93% Calm Calm -- 29.90 in1012.5 mb 0.00 in0.0 mm 0.00 in0.0 mm 0.00 in0.0 mm
12:30 AM 68.9°F20.5°C 66.5°F19.2°C 92% Calm Calm -- 29.91 in1012.9 mb 0.00 in0.0 mm 0.00 in0.0 mm 0.00 in0.0 mm
12:15 AM 69.0°F20.6°C 66.9°F19.4°C 93% Calm Calm 1.0 mph1.6 kmh 29.92 in1013.2 mb 0.00 in0.0 mm 0.00 in0.0 mm 0.00 in0.0 mm
12:00 AM 69.0°F20.6°C 66.9°F19.4°C 93% Calm Calm -- 29.92 in1013.2 mb 0.00 in0.0 mm 0.00 in0.0 mm 0.00 in0.0 mm